sensor_id;sensor_type;location;lat;lon;timestamp;P1;durP1;ratioP1;P2;durP2;ratioP2
29662;SDS011;16578;53.266;7.920;2024-02-21T00:02:09;23.58;;;13.40;;
29662;SDS011;16578;53.266;7.920;2024-02-21T00:04:34;25.70;;;13.73;;
29662;SDS011;16578;53.266;7.920;2024-02-21T00:07:01;27.98;;;14.38;;
29662;SDS011;16578;53.266;7.920;2024-02-21T00:09:27;27.27;;;14.50;;
29662;SDS011;16578;53.266;7.920;2024-02-21T00:11:53;25.70;;;15.32;;
29662;SDS011;16578;53.266;7.920;2024-02-21T00:14:18;23.75;;;15.30;;
29662;SDS011;16578;53.266;7.920;2024-02-21T00:16:44;27.92;;;14.95;;
29662;SDS011;16578;53.266;7.920;2024-02-21T00:19:09;25.27;;;15.85;;
29662;SDS011;16578;53.266;7.920;2024-02-21T00:21:35;30.65;;;16.05;;
29662;SDS011;16578;53.266;7.920;2024-02-21T00:24:00;24.23;;;16.50;;
29662;SDS011;16578;53.266;7.920;2024-02-21T00:26:26;25.02;;;16.33;;
29662;SDS011;16578;53.266;7.920;2024-02-21T00:28:55;28.25;;;17.02;;
29662;SDS011;16578;53.266;7.920;2024-02-21T00:31:20;28.05;;;17.92;;
29662;SDS011;16578;53.266;7.920;2024-02-21T00:33:46;24.70;;;16.15;;
29662;SDS011;16578;53.266;7.920;2024-02-21T00:36:12;29.05;;;17.23;;
29662;SDS011;16578;53.266;7.920;2024-02-21T00:38:37;26.85;;;15.93;;
29662;SDS011;16578;53.266;7.920;2024-02-21T00:41:03;27.38;;;17.00;;
29662;SDS011;16578;53.266;7.920;2024-02-21T00:43:29;25.25;;;15.98;;
29662;SDS011;16578;53.266;7.920;2024-02-21T00:45:54;27.20;;;15.85;;
29662;SDS011;16578;53.266;7.920;2024-02-21T00:48:20;27.27;;;14.70;;
29662;SDS011;16578;53.266;7.920;2024-02-21T00:50:45;26.77;;;15.93;;
29662;SDS011;16578;53.266;7.920;2024-02-21T00:53:11;24.40;;;15.27;;
29662;SDS011;16578;53.266;7.920;2024-02-21T00:55:36;21.42;;;14.35;;
29662;SDS011;16578;53.266;7.920;2024-02-21T00:58:02;22.83;;;15.32;;
29662;SDS011;16578;53.266;7.920;2024-02-21T01:00:28;23.38;;;16.13;;
29662;SDS011;16578;53.266;7.920;2024-02-21T01:02:53;25.00;;;16.00;;
29662;SDS011;16578;53.266;7.920;2024-02-21T01:05:19;22.13;;;14.60;;
29662;SDS011;16578;53.266;7.920;2024-02-21T01:07:45;22.95;;;14.25;;
29662;SDS011;16578;53.266;7.920;2024-02-21T01:10:10;19.45;;;14.68;;
29662;SDS011;16578;53.266;7.920;2024-02-21T01:12:36;24.73;;;12.85;;
29662;SDS011;16578;53.266;7.920;2024-02-21T01:15:02;24.42;;;14.93;;
29662;SDS011;16578;53.266;7.920;2024-02-21T01:17:28;21.20;;;13.85;;
29662;SDS011;16578;53.266;7.920;2024-02-21T01:19:53;25.15;;;14.70;;
29662;SDS011;16578;53.266;7.920;2024-02-21T01:22:19;24.08;;;13.95;;
29662;SDS011;16578;53.266;7.920;2024-02-21T01:24:44;25.20;;;14.40;;
29662;SDS011;16578;53.266;7.920;2024-02-21T01:27:10;24.77;;;13.60;;
29662;SDS011;16578;53.266;7.920;2024-02-21T01:29:36;25.55;;;12.75;;
29662;SDS011;16578;53.266;7.920;2024-02-21T01:32:01;19.48;;;12.93;;
29662;SDS011;16578;53.266;7.920;2024-02-21T01:34:27;22.50;;;12.80;;
29662;SDS011;16578;53.266;7.920;2024-02-21T01:36:52;24.80;;;12.93;;
29662;SDS011;16578;53.266;7.920;2024-02-21T01:39:18;21.30;;;12.98;;
29662;SDS011;16578;53.266;7.920;2024-02-21T01:41:43;21.63;;;11.85;;
29662;SDS011;16578;53.266;7.920;2024-02-21T01:44:09;21.10;;;13.15;;
29662;SDS011;16578;53.266;7.920;2024-02-21T01:46:35;23.10;;;12.32;;
29662;SDS011;16578;53.266;7.920;2024-02-21T01:49:01;28.25;;;13.18;;
29662;SDS011;16578;53.266;7.920;2024-02-21T01:51:27;20.42;;;11.88;;
29662;SDS011;16578;53.266;7.920;2024-02-21T01:53:53;19.75;;;11.65;;
29662;SDS011;16578;53.266;7.920;2024-02-21T01:58:47;17.58;;;10.23;;
29662;SDS011;16578;53.266;7.920;2024-02-21T02:01:13;16.58;;;10.45;;
29662;SDS011;16578;53.266;7.920;2024-02-21T02:03:39;17.75;;;11.30;;
29662;SDS011;16578;53.266;7.920;2024-02-21T02:06:05;22.02;;;11.13;;
29662;SDS011;16578;53.266;7.920;2024-02-21T02:08:34;17.30;;;10.43;;
29662;SDS011;16578;53.266;7.920;2024-02-21T02:11:00;25.13;;;11.30;;
29662;SDS011;16578;53.266;7.920;2024-02-21T02:13:26;22.15;;;11.95;;
29662;SDS011;16578;53.266;7.920;2024-02-21T02:15:52;22.23;;;11.07;;
29662;SDS011;16578;53.266;7.920;2024-02-21T02:18:18;18.58;;;10.65;;
29662;SDS011;16578;53.266;7.920;2024-02-21T02:20:44;18.77;;;11.00;;
29662;SDS011;16578;53.266;7.920;2024-02-21T02:23:11;17.25;;;9.65;;
29662;SDS011;16578;53.266;7.920;2024-02-21T02:25:40;19.30;;;11.20;;
29662;SDS011;16578;53.266;7.920;2024-02-21T02:28:06;18.00;;;11.43;;
29662;SDS011;16578;53.266;7.920;2024-02-21T02:30:33;19.20;;;10.68;;
29662;SDS011;16578;53.266;7.920;2024-02-21T02:33:01;20.75;;;10.55;;
29662;SDS011;16578;53.266;7.920;2024-02-21T02:35:29;18.45;;;10.52;;
29662;SDS011;16578;53.266;7.920;2024-02-21T02:37:55;22.75;;;11.10;;
29662;SDS011;16578;53.266;7.920;2024-02-21T02:40:21;21.58;;;11.00;;
29662;SDS011;16578;53.266;7.920;2024-02-21T02:42:47;17.60;;;10.38;;
29662;SDS011;16578;53.266;7.920;2024-02-21T02:45:14;15.75;;;10.10;;
29662;SDS011;16578;53.266;7.920;2024-02-21T02:47:40;19.23;;;10.65;;
29662;SDS011;16578;53.266;7.920;2024-02-21T02:50:06;19.25;;;9.75;;
29662;SDS011;16578;53.266;7.920;2024-02-21T02:52:33;19.90;;;10.77;;
29662;SDS011;16578;53.266;7.920;2024-02-21T02:54:58;20.05;;;10.73;;
29662;SDS011;16578;53.266;7.920;2024-02-21T02:57:24;18.67;;;10.07;;
29662;SDS011;16578;53.266;7.920;2024-02-21T02:59:50;16.20;;;9.63;;
29662;SDS011;16578;53.266;7.920;2024-02-21T03:02:16;22.48;;;10.38;;
29662;SDS011;16578;53.266;7.920;2024-02-21T03:04:45;18.77;;;10.57;;
29662;SDS011;16578;53.266;7.920;2024-02-21T03:07:11;18.00;;;9.23;;
29662;SDS011;16578;53.266;7.920;2024-02-21T03:09:39;17.25;;;9.13;;
29662;SDS011;16578;53.266;7.920;2024-02-21T03:14:31;16.55;;;9.13;;
29662;SDS011;16578;53.266;7.920;2024-02-21T03:16:58;16.05;;;9.13;;
29662;SDS011;16578;53.266;7.920;2024-02-21T03:19:24;13.73;;;8.35;;
29662;SDS011;16578;53.266;7.920;2024-02-21T03:21:50;17.25;;;8.60;;
29662;SDS011;16578;53.266;7.920;2024-02-21T03:24:16;13.27;;;8.05;;
29662;SDS011;16578;53.266;7.920;2024-02-21T03:26:42;12.93;;;8.15;;
29662;SDS011;16578;53.266;7.920;2024-02-21T03:29:07;13.75;;;8.25;;
29662;SDS011;16578;53.266;7.920;2024-02-21T03:31:36;13.98;;;7.40;;
29662;SDS011;16578;53.266;7.920;2024-02-21T03:34:02;13.20;;;7.32;;
29662;SDS011;16578;53.266;7.920;2024-02-21T03:36:28;8.48;;;6.50;;
29662;SDS011;16578;53.266;7.920;2024-02-21T03:38:54;12.65;;;7.43;;
29662;SDS011;16578;53.266;7.920;2024-02-21T03:41:20;8.40;;;6.72;;
29662;SDS011;16578;53.266;7.920;2024-02-21T03:43:46;10.50;;;7.10;;
29662;SDS011;16578;53.266;7.920;2024-02-21T03:46:11;9.30;;;5.80;;
29662;SDS011;16578;53.266;7.920;2024-02-21T03:48:37;13.10;;;5.97;;
29662;SDS011;16578;53.266;7.920;2024-02-21T03:51:03;9.80;;;5.88;;
29662;SDS011;16578;53.266;7.920;2024-02-21T03:53:29;9.63;;;5.90;;
29662;SDS011;16578;53.266;7.920;2024-02-21T03:55:54;7.93;;;5.60;;
29662;SDS011;16578;53.266;7.920;2024-02-21T03:58:20;7.43;;;5.20;;
29662;SDS011;16578;53.266;7.920;2024-02-21T04:00:46;7.70;;;5.32;;
29662;SDS011;16578;53.266;7.920;2024-02-21T04:03:11;7.28;;;4.85;;
29662;SDS011;16578;53.266;7.920;2024-02-21T04:05:37;6.20;;;5.05;;
29662;SDS011;16578;53.266;7.920;2024-02-21T04:08:04;7.07;;;4.40;;
29662;SDS011;16578;53.266;7.920;2024-02-21T04:10:30;6.55;;;4.25;;
29662;SDS011;16578;53.266;7.920;2024-02-21T04:12:55;5.72;;;4.65;;
29662;SDS011;16578;53.266;7.920;2024-02-21T04:15:21;11.32;;;5.57;;
29662;SDS011;16578;53.266;7.920;2024-02-21T04:17:46;6.10;;;4.78;;
29662;SDS011;16578;53.266;7.920;2024-02-21T04:20:13;6.82;;;4.70;;
29662;SDS011;16578;53.266;7.920;2024-02-21T04:22:40;5.82;;;4.75;;
29662;SDS011;16578;53.266;7.920;2024-02-21T04:25:07;5.78;;;4.45;;
29662;SDS011;16578;53.266;7.920;2024-02-21T04:27:33;6.88;;;4.40;;
29662;SDS011;16578;53.266;7.920;2024-02-21T04:29:59;8.48;;;4.72;;
29662;SDS011;16578;53.266;7.920;2024-02-21T04:32:25;7.15;;;4.70;;
29662;SDS011;16578;53.266;7.920;2024-02-21T04:34:52;7.38;;;4.60;;
29662;SDS011;16578;53.266;7.920;2024-02-21T04:37:18;7.65;;;5.10;;
29662;SDS011;16578;53.266;7.920;2024-02-21T04:39:44;9.43;;;4.82;;
29662;SDS011;16578;53.266;7.920;2024-02-21T04:42:12;7.18;;;4.80;;
29662;SDS011;16578;53.266;7.920;2024-02-21T04:44:40;10.35;;;5.07;;
29662;SDS011;16578;53.266;7.920;2024-02-21T04:47:06;7.68;;;5.03;;
29662;SDS011;16578;53.266;7.920;2024-02-21T04:49:33;7.25;;;5.18;;
29662;SDS011;16578;53.266;7.920;2024-02-21T04:52:04;6.93;;;4.80;;
29662;SDS011;16578;53.266;7.920;2024-02-21T04:54:33;6.97;;;5.00;;
29662;SDS011;16578;53.266;7.920;2024-02-21T04:57:04;7.45;;;4.93;;
29662;SDS011;16578;53.266;7.920;2024-02-21T04:59:37;5.97;;;4.57;;
29662;SDS011;16578;53.266;7.920;2024-02-21T05:02:06;6.82;;;4.57;;
29662;SDS011;16578;53.266;7.920;2024-02-21T05:04:31;7.25;;;5.13;;
29662;SDS011;16578;53.266;7.920;2024-02-21T05:06:57;8.77;;;5.00;;
29662;SDS011;16578;53.266;7.920;2024-02-21T05:09:24;7.85;;;4.45;;
29662;SDS011;16578;53.266;7.920;2024-02-21T05:11:50;8.80;;;5.05;;
29662;SDS011;16578;53.266;7.920;2024-02-21T05:14:16;8.45;;;5.00;;
29662;SDS011;16578;53.266;7.920;2024-02-21T05:16:41;5.15;;;4.63;;
29662;SDS011;16578;53.266;7.920;2024-02-21T05:19:07;8.68;;;4.53;;
29662;SDS011;16578;53.266;7.920;2024-02-21T05:21:33;7.03;;;4.88;;
29662;SDS011;16578;53.266;7.920;2024-02-21T05:23:59;5.93;;;4.25;;
29662;SDS011;16578;53.266;7.920;2024-02-21T05:26:25;9.55;;;5.25;;
29662;SDS011;16578;53.266;7.920;2024-02-21T05:28:54;7.13;;;4.85;;
29662;SDS011;16578;53.266;7.920;2024-02-21T05:31:20;6.90;;;4.40;;
29662;SDS011;16578;53.266;7.920;2024-02-21T05:33:51;7.55;;;4.65;;
29662;SDS011;16578;53.266;7.920;2024-02-21T05:36:19;6.22;;;3.60;;
29662;SDS011;16578;53.266;7.920;2024-02-21T05:38:45;8.20;;;5.15;;
29662;SDS011;16578;53.266;7.920;2024-02-21T05:41:11;6.82;;;4.72;;
29662;SDS011;16578;53.266;7.920;2024-02-21T05:43:36;5.82;;;4.13;;
29662;SDS011;16578;53.266;7.920;2024-02-21T05:46:02;7.35;;;4.97;;
29662;SDS011;16578;53.266;7.920;2024-02-21T05:48:28;7.40;;;4.40;;
29662;SDS011;16578;53.266;7.920;2024-02-21T05:50:54;5.43;;;4.45;;
29662;SDS011;16578;53.266;7.920;2024-02-21T05:53:20;9.55;;;4.88;;
29662;SDS011;16578;53.266;7.920;2024-02-21T05:55:45;11.13;;;4.75;;
29662;SDS011;16578;53.266;7.920;2024-02-21T05:58:11;6.90;;;4.35;;
29662;SDS011;16578;53.266;7.920;2024-02-21T06:00:38;7.97;;;4.95;;
29662;SDS011;16578;53.266;7.920;2024-02-21T06:03:04;7.60;;;4.63;;
29662;SDS011;16578;53.266;7.920;2024-02-21T06:05:30;8.65;;;5.03;;
29662;SDS011;16578;53.266;7.920;2024-02-21T06:07:56;8.45;;;5.45;;
29662;SDS011;16578;53.266;7.920;2024-02-21T06:10:22;9.68;;;5.85;;
29662;SDS011;16578;53.266;7.920;2024-02-21T06:12:48;9.77;;;5.18;;
29662;SDS011;16578;53.266;7.920;2024-02-21T06:15:13;8.63;;;5.65;;
29662;SDS011;16578;53.266;7.920;2024-02-21T06:17:39;10.23;;;5.30;;
29662;SDS011;16578;53.266;7.920;2024-02-21T06:20:05;8.75;;;5.68;;
29662;SDS011;16578;53.266;7.920;2024-02-21T06:22:31;11.27;;;6.15;;
29662;SDS011;16578;53.266;7.920;2024-02-21T06:24:56;8.57;;;5.05;;
29662;SDS011;16578;53.266;7.920;2024-02-21T06:27:22;11.25;;;6.00;;
29662;SDS011;16578;53.266;7.920;2024-02-21T06:29:49;9.88;;;5.55;;
29662;SDS011;16578;53.266;7.920;2024-02-21T06:32:14;12.15;;;5.80;;
29662;SDS011;16578;53.266;7.920;2024-02-21T06:34:40;6.97;;;5.18;;
29662;SDS011;16578;53.266;7.920;2024-02-21T06:37:06;10.55;;;5.68;;
29662;SDS011;16578;53.266;7.920;2024-02-21T06:39:31;6.53;;;4.82;;
29662;SDS011;16578;53.266;7.920;2024-02-21T06:41:57;8.80;;;5.10;;
29662;SDS011;16578;53.266;7.920;2024-02-21T06:44:22;7.97;;;4.60;;
29662;SDS011;16578;53.266;7.920;2024-02-21T06:46:48;8.00;;;4.93;;
29662;SDS011;16578;53.266;7.920;2024-02-21T06:49:13;7.93;;;4.70;;
29662;SDS011;16578;53.266;7.920;2024-02-21T06:51:44;5.55;;;4.63;;
29662;SDS011;16578;53.266;7.920;2024-02-21T06:54:10;5.63;;;4.60;;
29662;SDS011;16578;53.266;7.920;2024-02-21T06:56:36;9.05;;;4.72;;
29662;SDS011;16578;53.266;7.920;2024-02-21T06:59:02;6.53;;;4.40;;
29662;SDS011;16578;53.266;7.920;2024-02-21T07:01:31;6.80;;;4.97;;
29662;SDS011;16578;53.266;7.920;2024-02-21T07:03:56;7.13;;;4.97;;
29662;SDS011;16578;53.266;7.920;2024-02-21T07:06:22;7.28;;;4.50;;
29662;SDS011;16578;53.266;7.920;2024-02-21T07:08:48;7.90;;;5.20;;
29662;SDS011;16578;53.266;7.920;2024-02-21T07:11:13;7.65;;;5.25;;
29662;SDS011;16578;53.266;7.920;2024-02-21T07:13:39;9.75;;;5.53;;
29662;SDS011;16578;53.266;7.920;2024-02-21T07:16:05;7.38;;;4.97;;
29662;SDS011;16578;53.266;7.920;2024-02-21T07:18:31;9.27;;;5.85;;
29662;SDS011;16578;53.266;7.920;2024-02-21T07:20:57;10.73;;;5.70;;
29662;SDS011;16578;53.266;7.920;2024-02-21T07:23:23;9.88;;;5.95;;
29662;SDS011;16578;53.266;7.920;2024-02-21T07:25:49;11.50;;;6.60;;
29662;SDS011;16578;53.266;7.920;2024-02-21T07:28:14;10.27;;;6.80;;
29662;SDS011;16578;53.266;7.920;2024-02-21T07:30:41;11.82;;;6.90;;
29662;SDS011;16578;53.266;7.920;2024-02-21T07:33:07;12.88;;;7.32;;
29662;SDS011;16578;53.266;7.920;2024-02-21T07:35:32;12.05;;;7.32;;
29662;SDS011;16578;53.266;7.920;2024-02-21T07:37:58;15.80;;;7.65;;
29662;SDS011;16578;53.266;7.920;2024-02-21T07:40:24;11.18;;;7.60;;
29662;SDS011;16578;53.266;7.920;2024-02-21T07:42:49;11.35;;;8.02;;
29662;SDS011;16578;53.266;7.920;2024-02-21T07:45:15;11.48;;;7.85;;
29662;SDS011;16578;53.266;7.920;2024-02-21T07:47:40;11.48;;;7.65;;
29662;SDS011;16578;53.266;7.920;2024-02-21T07:50:06;13.25;;;7.82;;
29662;SDS011;16578;53.266;7.920;2024-02-21T07:52:32;12.68;;;8.32;;
29662;SDS011;16578;53.266;7.920;2024-02-21T07:54:58;13.43;;;8.93;;
29662;SDS011;16578;53.266;7.920;2024-02-21T07:57:23;17.92;;;9.40;;
29662;SDS011;16578;53.266;7.920;2024-02-21T07:59:49;10.57;;;6.95;;
29662;SDS011;16578;53.266;7.920;2024-02-21T08:02:15;11.63;;;7.72;;
29662;SDS011;16578;53.266;7.920;2024-02-21T08:04:40;13.85;;;7.82;;
29662;SDS011;16578;53.266;7.920;2024-02-21T08:07:06;11.38;;;7.78;;
29662;SDS011;16578;53.266;7.920;2024-02-21T08:09:32;12.48;;;8.45;;
29662;SDS011;16578;53.266;7.920;2024-02-21T08:11:59;14.43;;;8.43;;
29662;SDS011;16578;53.266;7.920;2024-02-21T08:14:24;10.63;;;7.70;;
29662;SDS011;16578;53.266;7.920;2024-02-21T08:16:50;13.57;;;8.02;;
29662;SDS011;16578;53.266;7.920;2024-02-21T08:19:18;9.85;;;6.65;;
29662;SDS011;16578;53.266;7.920;2024-02-21T08:21:44;13.88;;;8.23;;
29662;SDS011;16578;53.266;7.920;2024-02-21T08:24:11;12.93;;;8.53;;
29662;SDS011;16578;53.266;7.920;2024-02-21T08:26:40;9.55;;;8.15;;
29662;SDS011;16578;53.266;7.920;2024-02-21T08:29:12;15.48;;;8.73;;
29662;SDS011;16578;53.266;7.920;2024-02-21T08:31:38;13.93;;;9.93;;
29662;SDS011;16578;53.266;7.920;2024-02-21T08:34:04;18.65;;;9.77;;
29662;SDS011;16578;53.266;7.920;2024-02-21T08:36:33;16.10;;;10.65;;
29662;SDS011;16578;53.266;7.920;2024-02-21T08:39:00;19.88;;;12.20;;
29662;SDS011;16578;53.266;7.920;2024-02-21T08:41:30;17.23;;;11.48;;
29662;SDS011;16578;53.266;7.920;2024-02-21T08:43:56;20.48;;;12.30;;
29662;SDS011;16578;53.266;7.920;2024-02-21T08:46:22;21.67;;;13.32;;
29662;SDS011;16578;53.266;7.920;2024-02-21T08:48:49;22.13;;;12.30;;
29662;SDS011;16578;53.266;7.920;2024-02-21T08:51:18;24.98;;;14.90;;
29662;SDS011;16578;53.266;7.920;2024-02-21T08:53:45;24.42;;;14.15;;
29662;SDS011;16578;53.266;7.920;2024-02-21T08:56:11;19.88;;;13.77;;
29662;SDS011;16578;53.266;7.920;2024-02-21T08:58:36;21.50;;;14.63;;
29662;SDS011;16578;53.266;7.920;2024-02-21T09:01:03;21.10;;;13.60;;
29662;SDS011;16578;53.266;7.920;2024-02-21T09:03:33;25.60;;;14.82;;
29662;SDS011;16578;53.266;7.920;2024-02-21T09:05:59;24.88;;;14.30;;
29662;SDS011;16578;53.266;7.920;2024-02-21T09:08:25;20.77;;;12.85;;
29662;SDS011;16578;53.266;7.920;2024-02-21T09:10:51;19.40;;;12.63;;
29662;SDS011;16578;53.266;7.920;2024-02-21T09:13:17;22.70;;;11.82;;
29662;SDS011;16578;53.266;7.920;2024-02-21T09:15:43;21.90;;;12.18;;
29662;SDS011;16578;53.266;7.920;2024-02-21T09:18:09;17.92;;;11.48;;
29662;SDS011;16578;53.266;7.920;2024-02-21T09:20:34;14.57;;;11.10;;
29662;SDS011;16578;53.266;7.920;2024-02-21T09:23:00;21.08;;;12.93;;
29662;SDS011;16578;53.266;7.920;2024-02-21T09:25:26;21.25;;;13.13;;
29662;SDS011;16578;53.266;7.920;2024-02-21T09:27:53;17.02;;;12.27;;
29662;SDS011;16578;53.266;7.920;2024-02-21T09:30:19;18.83;;;12.77;;
29662;SDS011;16578;53.266;7.920;2024-02-21T09:32:45;21.33;;;13.10;;
29662;SDS011;16578;53.266;7.920;2024-02-21T09:35:11;25.35;;;14.95;;
29662;SDS011;16578;53.266;7.920;2024-02-21T09:37:37;19.50;;;14.30;;
29662;SDS011;16578;53.266;7.920;2024-02-21T09:40:04;22.33;;;14.27;;
29662;SDS011;16578;53.266;7.920;2024-02-21T09:42:40;19.33;;;14.55;;
29662;SDS011;16578;53.266;7.920;2024-02-21T09:45:24;21.70;;;13.52;;
29662;SDS011;16578;53.266;7.920;2024-02-21T09:50:38;19.45;;;13.80;;
29662;SDS011;16578;53.266;7.920;2024-02-21T09:53:08;24.65;;;13.75;;
29662;SDS011;16578;53.266;7.920;2024-02-21T09:55:36;21.67;;;13.18;;
29662;SDS011;16578;53.266;7.920;2024-02-21T09:58:05;20.75;;;14.10;;
29662;SDS011;16578;53.266;7.920;2024-02-21T10:00:32;19.48;;;14.05;;
29662;SDS011;16578;53.266;7.920;2024-02-21T10:02:58;22.40;;;13.38;;
29662;SDS011;16578;53.266;7.920;2024-02-21T10:05:24;23.13;;;15.27;;
29662;SDS011;16578;53.266;7.920;2024-02-21T10:07:51;22.65;;;14.65;;
29662;SDS011;16578;53.266;7.920;2024-02-21T10:10:16;22.27;;;14.50;;
29662;SDS011;16578;53.266;7.920;2024-02-21T10:12:49;20.15;;;14.18;;
29662;SDS011;16578;53.266;7.920;2024-02-21T10:15:19;19.38;;;13.52;;
29662;SDS011;16578;53.266;7.920;2024-02-21T10:17:47;21.83;;;15.18;;
29662;SDS011;16578;53.266;7.920;2024-02-21T10:20:13;19.05;;;14.95;;
29662;SDS011;16578;53.266;7.920;2024-02-21T10:22:40;22.70;;;14.38;;
29662;SDS011;16578;53.266;7.920;2024-02-21T10:25:06;20.30;;;14.13;;
29662;SDS011;16578;53.266;7.920;2024-02-21T10:27:36;25.75;;;13.95;;
29662;SDS011;16578;53.266;7.920;2024-02-21T10:30:03;17.02;;;13.02;;
29662;SDS011;16578;53.266;7.920;2024-02-21T10:32:29;18.70;;;12.32;;
29662;SDS011;16578;53.266;7.920;2024-02-21T10:35:02;19.88;;;13.93;;
29662;SDS011;16578;53.266;7.920;2024-02-21T10:37:31;19.98;;;13.75;;
29662;SDS011;16578;53.266;7.920;2024-02-21T10:39:57;21.63;;;13.73;;
29662;SDS011;16578;53.266;7.920;2024-02-21T10:42:22;16.58;;;12.90;;
29662;SDS011;16578;53.266;7.920;2024-02-21T10:44:56;16.63;;;11.60;;
29662;SDS011;16578;53.266;7.920;2024-02-21T10:47:26;19.60;;;12.50;;
29662;SDS011;16578;53.266;7.920;2024-02-21T10:49:57;17.33;;;12.45;;
29662;SDS011;16578;53.266;7.920;2024-02-21T10:55:16;18.05;;;12.70;;
29662;SDS011;16578;53.266;7.920;2024-02-21T10:57:53;16.00;;;12.35;;
29662;SDS011;16578;53.266;7.920;2024-02-21T11:00:19;21.33;;;12.48;;
29662;SDS011;16578;53.266;7.920;2024-02-21T11:02:46;19.90;;;13.27;;
29662;SDS011;16578;53.266;7.920;2024-02-21T11:05:12;22.40;;;12.13;;
29662;SDS011;16578;53.266;7.920;2024-02-21T11:07:38;17.90;;;11.63;;
29662;SDS011;16578;53.266;7.920;2024-02-21T11:10:05;16.60;;;11.68;;
29662;SDS011;16578;53.266;7.920;2024-02-21T11:12:45;18.48;;;12.43;;
29662;SDS011;16578;53.266;7.920;2024-02-21T11:15:13;19.30;;;12.40;;
29662;SDS011;16578;53.266;7.920;2024-02-21T11:17:40;18.02;;;12.23;;
29662;SDS011;16578;53.266;7.920;2024-02-21T11:20:12;21.08;;;12.65;;
29662;SDS011;16578;53.266;7.920;2024-02-21T11:22:42;17.95;;;12.52;;
29662;SDS011;16578;53.266;7.920;2024-02-21T11:25:13;19.65;;;13.05;;
29662;SDS011;16578;53.266;7.920;2024-02-21T11:27:50;19.42;;;12.60;;
29662;SDS011;16578;53.266;7.920;2024-02-21T11:30:33;21.67;;;12.60;;
29662;SDS011;16578;53.266;7.920;2024-02-21T11:33:07;18.35;;;12.52;;
29662;SDS011;16578;53.266;7.920;2024-02-21T11:35:34;18.88;;;12.82;;
29662;SDS011;16578;53.266;7.920;2024-02-21T11:40:38;16.58;;;11.13;;
29662;SDS011;16578;53.266;7.920;2024-02-21T11:43:05;19.10;;;10.88;;
29662;SDS011;16578;53.266;7.920;2024-02-21T11:45:36;19.25;;;12.00;;
29662;SDS011;16578;53.266;7.920;2024-02-21T11:48:07;13.52;;;10.35;;
29662;SDS011;16578;53.266;7.920;2024-02-21T11:50:36;16.85;;;11.10;;
29662;SDS011;16578;53.266;7.920;2024-02-21T11:53:05;14.18;;;10.05;;
29662;SDS011;16578;53.266;7.920;2024-02-21T11:55:31;14.38;;;9.82;;
29662;SDS011;16578;53.266;7.920;2024-02-21T11:57:59;14.57;;;9.85;;
29662;SDS011;16578;53.266;7.920;2024-02-21T12:00:25;17.00;;;8.93;;
29662;SDS011;16578;53.266;7.920;2024-02-21T12:02:51;12.70;;;8.38;;
29662;SDS011;16578;53.266;7.920;2024-02-21T12:05:18;12.40;;;8.38;;
29662;SDS011;16578;53.266;7.920;2024-02-21T12:07:45;13.25;;;8.43;;
29662;SDS011;16578;53.266;7.920;2024-02-21T12:10:11;15.15;;;9.15;;
29662;SDS011;16578;53.266;7.920;2024-02-21T12:12:38;12.35;;;8.32;;
29662;SDS011;16578;53.266;7.920;2024-02-21T12:15:04;13.45;;;7.40;;
29662;SDS011;16578;53.266;7.920;2024-02-21T12:17:32;13.73;;;7.82;;
29662;SDS011;16578;53.266;7.920;2024-02-21T12:20:01;13.85;;;9.15;;
29662;SDS011;16578;53.266;7.920;2024-02-21T12:22:33;12.98;;;7.65;;
29662;SDS011;16578;53.266;7.920;2024-02-21T12:25:19;15.18;;;7.65;;
29662;SDS011;16578;53.266;7.920;2024-02-21T12:27:51;11.60;;;6.97;;
29662;SDS011;16578;53.266;7.920;2024-02-21T12:30:17;12.32;;;7.85;;
29662;SDS011;16578;53.266;7.920;2024-02-21T12:32:44;12.30;;;7.47;;
29662;SDS011;16578;53.266;7.920;2024-02-21T12:35:10;12.85;;;8.15;;
29662;SDS011;16578;53.266;7.920;2024-02-21T12:37:36;12.52;;;7.75;;
29662;SDS011;16578;53.266;7.920;2024-02-21T12:40:03;14.27;;;8.85;;
29662;SDS011;16578;53.266;7.920;2024-02-21T12:42:34;13.40;;;8.02;;
29662;SDS011;16578;53.266;7.920;2024-02-21T12:45:00;13.63;;;8.68;;
29662;SDS011;16578;53.266;7.920;2024-02-21T12:47:28;10.02;;;7.30;;
29662;SDS011;16578;53.266;7.920;2024-02-21T12:49:53;10.07;;;6.97;;
29662;SDS011;16578;53.266;7.920;2024-02-21T12:52:19;12.65;;;7.40;;
29662;SDS011;16578;53.266;7.920;2024-02-21T12:54:45;14.18;;;7.28;;
29662;SDS011;16578;53.266;7.920;2024-02-21T12:57:11;11.60;;;6.97;;
29662;SDS011;16578;53.266;7.920;2024-02-21T12:59:36;16.08;;;7.03;;
29662;SDS011;16578;53.266;7.920;2024-02-21T13:02:02;10.18;;;7.03;;
29662;SDS011;16578;53.266;7.920;2024-02-21T13:04:27;11.63;;;6.68;;
29662;SDS011;16578;53.266;7.920;2024-02-21T13:06:53;10.88;;;6.55;;
29662;SDS011;16578;53.266;7.920;2024-02-21T13:09:20;8.30;;;5.93;;
29662;SDS011;16578;53.266;7.920;2024-02-21T13:11:46;12.48;;;6.82;;
29662;SDS011;16578;53.266;7.920;2024-02-21T13:14:12;7.32;;;5.82;;
29662;SDS011;16578;53.266;7.920;2024-02-21T13:16:38;11.65;;;6.45;;
29662;SDS011;16578;53.266;7.920;2024-02-21T13:21:33;12.00;;;6.30;;
29662;SDS011;16578;53.266;7.920;2024-02-21T13:26:27;9.63;;;6.32;;
29662;SDS011;16578;53.266;7.920;2024-02-21T13:28:53;11.55;;;5.68;;
29662;SDS011;16578;53.266;7.920;2024-02-21T13:31:18;11.65;;;5.97;;
29662;SDS011;16578;53.266;7.920;2024-02-21T13:33:45;11.68;;;6.45;;
29662;SDS011;16578;53.266;7.920;2024-02-21T13:36:10;10.05;;;6.70;;
29662;SDS011;16578;53.266;7.920;2024-02-21T13:38:36;10.30;;;6.63;;
29662;SDS011;16578;53.266;7.920;2024-02-21T13:41:03;9.88;;;6.03;;
29662;SDS011;16578;53.266;7.920;2024-02-21T13:43:32;12.98;;;6.68;;
29662;SDS011;16578;53.266;7.920;2024-02-21T13:46:00;9.57;;;6.47;;
29662;SDS011;16578;53.266;7.920;2024-02-21T13:48:28;11.43;;;6.90;;
29662;SDS011;16578;53.266;7.920;2024-02-21T13:50:55;10.45;;;6.97;;
29662;SDS011;16578;53.266;7.920;2024-02-21T13:53:20;10.18;;;6.43;;
29662;SDS011;16578;53.266;7.920;2024-02-21T13:55:47;8.35;;;5.47;;
29662;SDS011;16578;53.266;7.920;2024-02-21T13:58:13;8.88;;;6.40;;
29662;SDS011;16578;53.266;7.920;2024-02-21T14:00:40;9.32;;;5.90;;
29662;SDS011;16578;53.266;7.920;2024-02-21T14:03:05;7.45;;;5.50;;
29662;SDS011;16578;53.266;7.920;2024-02-21T14:05:31;9.68;;;5.70;;
29662;SDS011;16578;53.266;7.920;2024-02-21T14:07:57;10.38;;;5.40;;
29662;SDS011;16578;53.266;7.920;2024-02-21T14:10:22;8.10;;;5.35;;
29662;SDS011;16578;53.266;7.920;2024-02-21T14:12:48;10.18;;;5.35;;
29662;SDS011;16578;53.266;7.920;2024-02-21T14:15:14;8.30;;;5.43;;
29662;SDS011;16578;53.266;7.920;2024-02-21T14:17:41;8.10;;;6.03;;
29662;SDS011;16578;53.266;7.920;2024-02-21T14:20:07;8.50;;;5.43;;
29662;SDS011;16578;53.266;7.920;2024-02-21T14:22:33;6.22;;;5.05;;
29662;SDS011;16578;53.266;7.920;2024-02-21T14:24:59;8.13;;;4.85;;
29662;SDS011;16578;53.266;7.920;2024-02-21T14:27:25;8.10;;;4.95;;
29662;SDS011;16578;53.266;7.920;2024-02-21T14:29:51;7.88;;;4.72;;
29662;SDS011;16578;53.266;7.920;2024-02-21T14:32:17;8.10;;;4.70;;
29662;SDS011;16578;53.266;7.920;2024-02-21T14:34:42;7.80;;;4.95;;
29662;SDS011;16578;53.266;7.920;2024-02-21T14:37:08;9.32;;;5.25;;
29662;SDS011;16578;53.266;7.920;2024-02-21T14:39:33;7.47;;;4.95;;
29662;SDS011;16578;53.266;7.920;2024-02-21T14:42:00;6.82;;;4.28;;
29662;SDS011;16578;53.266;7.920;2024-02-21T14:44:26;5.75;;;4.25;;
29662;SDS011;16578;53.266;7.920;2024-02-21T14:46:52;5.82;;;4.22;;
29662;SDS011;16578;53.266;7.920;2024-02-21T14:49:18;7.45;;;4.38;;